Time;durP1;ratioP1;P1;durP2;ratioP2;P2;SDS_P1;SDS_P2;PMS_P1;PMS_P2;Temp;Humidity;BMP_temperature;BMP_pressure;BME280_temperature;BME280_humidity;BME280_pressure;Samples;Min_cycle;Max_cycle;Signal;HPM_P1;HPM_P2
2023/07/02 00:01:32;;;;;;;28.30;18.80;;;;;;;15.62;83.50;98643.20;218140;1257;140262;-66
2023/07/02 00:06:40;;;;;;;37.10;24.20;;;;;;;15.63;83.88;98641.20;218725;1254;140016;-67
2023/07/02 00:11:49;;;;;;;38.10;22.50;;;;;;;15.65;84.13;98644.11;218558;1253;140420;-66
2023/07/02 00:16:53;;;;;;;37.30;21.20;;;;;;;15.68;84.25;98645.73;218290;1254;139889;-65
2023/07/02 00:21:58;;;;;;;34.30;20.80;;;;;;;15.72;84.44;98641.20;219138;1254;141159;-66
2023/07/02 00:27:02;;;;;;;31.60;18.70;;;;;;;15.75;84.51;98641.54;218263;1257;142356;-67
2023/07/02 00:32:07;;;;;;;24.70;16.40;;;;;;;15.76;84.64;98634.86;218153;1254;141622;-67
2023/07/02 00:37:11;;;;;;;24.70;17.30;;;;;;;15.78;84.76;98635.20;218252;1254;140537;-67
2023/07/02 00:42:14;;;;;;;28.80;16.30;;;;;;;15.79;85.00;98633.13;219051;1254;140847;-67
2023/07/02 00:47:18;;;;;;;23.90;14.90;;;;;;;15.84;85.13;98633.38;218446;1254;140242;-68
2023/07/02 00:52:23;;;;;;;22.70;14.20;;;;;;;15.88;85.12;98633.10;219297;1254;141184;-67
2023/07/02 00:57:29;;;;;;;17.60;13.40;;;;;;;15.90;85.08;98627.66;218096;1257;140231;-66
2023/07/02 01:02:34;;;;;;;16.10;11.20;;;;;;;15.92;85.07;98623.29;218110;1254;139838;-68
2023/07/02 01:07:39;;;;;;;19.20;12.80;;;;;;;15.91;85.04;98619.73;220795;1254;140448;-68
2023/07/02 01:12:44;;;;;;;19.50;12.10;;;;;;;15.93;85.01;98614.39;219749;1253;140448;-65
2023/07/02 01:17:49;;;;;;;20.50;12.20;;;;;;;15.97;85.05;98614.38;219902;1254;140548;-65
2023/07/02 01:22:53;;;;;;;19.50;13.30;;;;;;;16.00;85.13;98614.32;219943;1254;140747;-65
2023/07/02 01:27:58;;;;;;;15.20;12.10;;;;;;;16.05;84.94;98612.52;218740;1257;140199;-66
2023/07/02 01:33:03;;;;;;;18.70;14.30;;;;;;;16.09;85.02;98604.27;218063;1254;140348;-66
2023/07/02 01:38:07;;;;;;;14.70;11.50;;;;;;;16.12;84.90;98600.66;218619;1254;141130;-67
2023/07/02 01:43:12;;;;;;;16.40;12.20;;;;;;;16.13;84.99;98599.35;218832;1254;140736;-68
2023/07/02 01:48:16;;;;;;;17.30;11.90;;;;;;;16.14;85.04;98595.78;218305;1254;140887;-67
2023/07/02 01:53:19;;;;;;;13.50;11.30;;;;;;;16.14;85.03;98593.20;218279;1257;141620;-66
2023/07/02 01:58:23;;;;;;;22.90;13.80;;;;;;;16.15;84.91;98589.31;218899;1254;139681;-67
2023/07/02 02:03:28;;;;;;;16.40;13.00;;;;;;;16.18;84.90;98594.38;218333;1253;140778;-66
2023/07/02 02:08:33;;;;;;;15.60;11.70;;;;;;;16.19;84.82;98588.07;218403;1254;139929;-68
2023/07/02 02:13:38;;;;;;;21.20;11.00;;;;;;;16.21;84.82;98587.88;218326;1257;140874;-66
2023/07/02 02:18:42;;;;;;;12.70;9.90;;;;;;;16.21;84.51;98587.88;218514;1253;140510;-66
2023/07/02 02:23:47;;;;;;;14.90;10.30;;;;;;;16.24;84.42;98587.13;220067;1254;139695;-66
2023/07/02 02:28:51;;;;;;;14.10;9.60;;;;;;;16.28;84.17;98581.30;217996;1259;139886;-66
2023/07/02 02:33:55;;;;;;;15.30;9.70;;;;;;;16.31;84.06;98579.99;218836;1254;140125;-66
2023/07/02 02:38:59;;;;;;;12.10;10.10;;;;;;;16.34;83.96;98578.44;219865;1253;141121;-67
2023/07/02 02:44:04;;;;;;;10.10;7.70;;;;;;;16.36;83.81;98580.27;218301;1254;140379;-67
2023/07/02 02:49:08;;;;;;;16.00;9.50;;;;;;;16.39;83.67;98574.04;220253;1254;140749;-68
2023/07/02 02:54:13;;;;;;;11.80;8.10;;;;;;;16.40;83.43;98580.25;220102;1254;139637;-68
2023/07/02 02:59:17;;;;;;;12.60;10.30;;;;;;;16.47;83.35;98591.41;221219;1254;140836;-65
2023/07/02 03:04:25;;;;;;;17.40;9.40;;;;;;;16.55;83.22;98590.14;220962;1254;140859;-66
2023/07/02 03:09:29;;;;;;;15.70;9.00;;;;;;;16.65;82.99;98594.92;220978;1253;140148;-67
2023/07/02 03:14:34;;;;;;;14.70;9.70;;;;;;;16.72;82.70;98590.10;219877;1253;139996;-66
2023/07/02 03:19:38;;;;;;;10.70;9.10;;;;;;;16.77;82.57;98584.13;220828;1254;140338;-67
2023/07/02 03:24:42;;;;;;;15.80;8.50;;;;;;;16.76;82.34;98581.90;219597;1257;139234;-65
2023/07/02 03:29:46;;;;;;;11.60;8.70;;;;;;;16.76;82.41;98589.48;218352;1256;140872;-66
2023/07/02 03:34:51;;;;;;;13.80;10.00;;;;;;;16.76;82.30;98588.02;218486;1256;139801;-66
2023/07/02 03:39:56;;;;;;;11.40;9.20;;;;;;;16.81;82.41;98593.11;218369;1255;141288;-64
2023/07/02 03:45:00;;;;;;;17.30;9.60;;;;;;;16.81;82.20;98595.27;219291;1256;140555;-65
2023/07/02 03:50:04;;;;;;;23.50;8.70;;;;;;;16.82;82.16;98597.33;217941;1254;143779;-64
2023/07/02 03:55:08;;;;;;;8.80;7.70;;;;;;;16.84;82.06;98596.33;218453;1257;139491;-64
2023/07/02 04:00:12;;;;;;;11.60;8.90;;;;;;;16.86;82.09;98598.18;218106;1256;142102;-64
2023/07/02 04:05:16;;;;;;;11.40;7.80;;;;;;;16.91;82.03;98602.42;218469;1257;139991;-64
2023/07/02 04:10:20;;;;;;;12.40;9.10;;;;;;;16.96;81.93;98607.00;218062;1257;141059;-64
2023/07/02 04:15:26;;;;;;;9.90;8.90;;;;;;;17.02;82.02;98614.73;218200;1256;140087;-64
2023/07/02 04:20:30;;;;;;;9.70;8.10;;;;;;;17.05;81.64;98613.59;218414;1259;139856;-65
2023/07/02 04:25:35;;;;;;;10.60;8.60;;;;;;;17.09;81.59;98612.76;218053;1258;139834;-67
2023/07/02 04:31:00;;;;;;;8.60;7.70;;;;;;;17.14;81.48;98614.92;219181;1254;140262;-66
2023/07/02 04:36:04;;;;;;;10.00;7.60;;;;;;;17.19;81.16;98617.50;218255;1259;140430;-67
2023/07/02 04:41:10;;;;;;;12.00;8.30;;;;;;;17.26;81.01;98624.02;219683;1257;140333;-67
2023/07/02 04:46:15;;;;;;;8.80;7.10;;;;;;;17.34;80.80;98628.21;218189;1254;140980;-66
2023/07/02 04:51:21;;;;;;;8.70;7.60;;;;;;;17.46;80.73;98633.67;218510;1254;140664;-66
2023/07/02 04:56:26;;;;;;;10.60;7.80;;;;;;;17.59;80.52;98627.81;220986;1254;141477;-67
2023/07/02 05:01:31;;;;;;;9.20;7.40;;;;;;;17.74;80.53;98627.07;220778;1254;139797;-67
2023/07/02 05:06:35;;;;;;;7.90;7.00;;;;;;;17.89;80.14;98626.87;221107;1254;141161;-66
2023/07/02 05:11:40;;;;;;;22.80;9.60;;;;;;;17.97;79.83;98635.55;220063;1254;140237;-65
2023/07/02 05:16:45;;;;;;;11.50;8.10;;;;;;;18.07;79.37;98647.02;219046;1257;141107;-66
2023/07/02 05:21:51;;;;;;;13.90;8.60;;;;;;;18.21;79.17;98657.42;218559;1257;140304;-65
2023/07/02 05:26:56;;;;;;;13.70;10.10;;;;;;;18.29;79.22;98662.25;218348;1255;233393;-65
2023/07/02 05:32:01;;;;;;;8.60;6.90;;;;;;;18.33;79.27;98664.52;218459;1254;140787;-66
2023/07/02 05:37:06;;;;;;;8.00;7.10;;;;;;;18.35;79.29;98665.98;218288;1255;139665;-67
2023/07/02 05:42:11;;;;;;;10.80;8.20;;;;;;;18.39;79.24;98664.84;219083;1254;139858;-66
2023/07/02 05:47:15;;;;;;;10.30;6.60;;;;;;;18.43;79.09;98676.70;218708;1258;141264;-65
2023/07/02 05:52:22;;;;;;;7.20;6.50;;;;;;;18.48;79.07;98683.21;219255;1254;140251;-68
2023/07/02 05:57:27;;;;;;;10.00;7.40;;;;;;;18.57;78.97;98677.22;218692;1258;140505;-65
2023/07/02 06:02:32;;;;;;;8.90;7.20;;;;;;;18.72;78.92;98678.58;219028;1254;140033;-67
2023/07/02 06:07:36;;;;;;;5.70;5.10;;;;;;;18.86;78.68;98681.58;217898;1259;140144;-66
2023/07/02 06:12:44;;;;;;;8.40;6.20;;;;;;;18.87;78.17;98681.23;218043;1254;139462;-70
2023/07/02 06:17:50;;;;;;;6.90;6.30;;;;;;;18.90;78.19;98676.56;218666;1258;140308;-70
2023/07/02 06:22:57;;;;;;;;;;;;;;;19.11;78.21;98677.77;218509;1258;140408;-70
2023/07/02 06:28:06;;;;;;;6.30;5.70;;;;;;;19.55;78.07;98670.08;218933;1258;126273;-71
2023/07/02 06:33:11;;;;;;;8.30;5.50;;;;;;;20.64;77.21;98671.29;217862;1254;139519;-69
2023/07/02 06:38:16;;;;;;;7.30;4.90;;;;;;;21.58;75.89;98678.30;219631;1253;140101;-70
2023/07/02 06:43:21;;;;;;;5.10;4.60;;;;;;;21.60;74.03;98681.48;218426;1254;139574;-67
2023/07/02 06:48:26;;;;;;;8.00;4.60;;;;;;;21.31;73.09;98689.55;219474;1259;142536;-69
2023/07/02 06:53:32;;;;;;;8.00;4.30;;;;;;;20.85;72.52;98690.24;218988;1259;139942;-68
2023/07/02 06:58:42;;;;;;;6.90;4.90;;;;;;;20.64;72.94;98688.19;219993;1257;140568;-66
2023/07/02 07:03:48;;;;;;;5.20;4.70;;;;;;;20.50;72.83;98690.54;220611;1255;140743;-65
2023/07/02 07:08:59;;;;;;;5.30;4.10;;;;;;;20.31;72.86;98696.23;220478;1258;140819;-64
2023/07/02 07:14:05;;;;;;;6.60;4.70;;;;;;;20.11;72.95;98699.92;220825;1257;141435;-68
2023/07/02 07:19:13;;;;;;;5.60;4.30;;;;;;;19.95;73.15;98710.71;219887;1256;139556;-67
2023/07/02 07:24:21;;;;;;;6.30;3.80;;;;;;;19.83;73.40;98716.11;219929;1254;141946;-66
2023/07/02 07:29:27;;;;;;;6.30;4.10;;;;;;;19.80;73.60;98716.34;219039;1258;139783;-65
2023/07/02 07:34:32;;;;;;;4.00;3.70;;;;;;;19.87;74.07;98720.56;219218;1254;139880;-66
2023/07/02 07:39:37;;;;;;;4.10;3.70;;;;;;;20.07;74.63;98728.73;218852;1258;139536;-68
2023/07/02 07:44:41;;;;;;;3.50;3.20;;;;;;;20.30;74.53;98722.11;218486;1260;140623;-68
2023/07/02 07:49:45;;;;;;;4.00;3.20;;;;;;;20.56;74.26;98720.97;217789;1260;139920;-67
2023/07/02 07:54:49;;;;;;;3.40;3.10;;;;;;;21.05;74.38;98715.17;218971;1258;140064;-67
2023/07/02 07:59:56;;;;;;;3.50;3.30;;;;;;;22.04;73.87;98717.63;218149;1257;140457;-71
2023/07/02 08:05:03;;;;;;;3.30;2.60;;;;;;;22.66;72.31;98721.04;218993;1257;140367;-67
2023/07/02 08:10:09;;;;;;;2.50;2.30;;;;;;;22.68;70.54;98726.70;218357;1254;140756;-67
2023/07/02 08:15:16;;;;;;;2.90;2.70;;;;;;;22.30;70.20;98733.80;218112;1254;139854;-69
2023/07/02 08:20:21;;;;;;;3.60;2.80;;;;;;;22.22;69.67;98735.25;219331;1255;141392;-71
2023/07/02 08:25:28;;;;;;;2.90;2.70;;;;;;;22.30;69.55;98735.14;218782;1254;140004;-69
2023/07/02 08:30:36;;;;;;;2.70;2.50;;;;;;;22.39;69.49;98742.11;218650;1255;139720;-69
2023/07/02 08:35:40;;;;;;;2.10;2.00;;;;;;;22.47;68.89;98743.54;218537;1257;139486;-65
2023/07/02 08:40:44;;;;;;;3.10;2.90;;;;;;;22.83;68.63;98740.93;219352;1254;140302;-70
2023/07/02 08:45:49;;;;;;;3.30;2.80;;;;;;;23.26;68.19;98740.09;219322;1254;140167;-71
2023/07/02 08:50:52;;;;;;;3.70;2.30;;;;;;;23.50;67.18;98741.69;218116;1254;140473;-66
2023/07/02 08:55:57;;;;;;;2.30;2.10;;;;;;;23.56;66.33;98738.12;219398;1254;140230;-67
2023/07/02 09:01:08;;;;;;;5.40;2.40;;;;;;;23.63;65.42;98748.67;220926;1255;141074;-72
2023/07/02 09:06:13;;;;;;;1.90;1.80;;;;;;;23.76;64.86;98749.06;221039;1254;140229;-73
2023/07/02 09:11:17;;;;;;;3.20;2.40;;;;;;;23.53;64.35;98754.73;220772;1254;139428;-72
2023/07/02 09:16:25;;;;;;;2.60;2.40;;;;;;;23.40;64.28;98756.13;219187;1254;138723;-71
2023/07/02 09:21:44;;;;;;;2.10;2.00;;;;;;;23.34;63.90;98755.42;218322;1255;138737;-70
2023/07/02 09:27:02;;;;;;;10.40;2.50;;;;;;;23.40;63.73;98753.88;219061;1255;139153;-68
2023/07/02 09:32:07;;;;;;;2.60;2.50;;;;;;;23.80;63.74;98751.73;219124;1254;139314;-68
2023/07/02 09:37:13;;;;;;;5.90;2.80;;;;;;;23.98;63.04;98749.29;219084;1257;139202;-68
2023/07/02 09:42:21;;;;;;;3.00;2.60;;;;;;;23.88;62.49;98757.92;218035;1254;139877;-69
2023/07/02 09:47:26;;;;;;;3.00;2.80;;;;;;;23.70;62.27;98753.86;217985;1254;140180;-69
2023/07/02 09:52:29;;;;;;;4.60;2.50;;;;;;;23.41;61.96;98756.86;218592;1254;138699;-69
2023/07/02 09:57:33;;;;;;;2.10;2.00;;;;;;;22.94;61.52;98763.80;218448;1257;139695;-69
2023/07/02 10:02:40;;;;;;;4.50;2.20;;;;;;;22.59;61.18;98770.61;218115;1254;139872;-69
2023/07/02 10:07:44;;;;;;;2.00;1.80;;;;;;;22.31;60.99;98766.64;218445;1254;139995;-69
2023/07/02 10:12:47;;;;;;;7.30;2.50;;;;;;;22.16;60.94;98762.40;217982;1257;139299;-69
2023/07/02 10:17:59;;;;;;;2.40;2.30;;;;;;;22.39;61.61;98761.25;218493;1254;138844;-70
2023/07/02 10:23:05;;;;;;;2.20;2.10;;;;;;;23.11;62.32;98754.69;218782;1257;139819;-68
2023/07/02 10:28:18;;;;;;;2.00;1.90;;;;;;;23.96;61.96;98752.95;219215;1257;139308;-68
2023/07/02 10:33:24;;;;;;;6.00;2.00;;;;;;;24.66;60.63;98750.14;217788;1254;138956;-69
2023/07/02 10:38:27;;;;;;;2.20;2.10;;;;;;;25.32;59.46;98736.36;217908;1257;249275;-69
2023/07/02 10:43:32;;;;;;;2.50;2.40;;;;;;;25.72;57.40;98743.64;218849;1254;139429;-68
2023/07/02 10:48:35;;;;;;;2.00;1.80;;;;;;;25.41;55.65;98748.73;219104;1254;138962;-70
2023/07/02 10:53:39;;;;;;;2.10;1.90;;;;;;;25.06;54.97;98754.26;219049;1254;138778;-70
2023/07/02 10:58:44;;;;;;;1.80;1.70;;;;;;;24.75;54.91;98762.98;220850;1254;139243;-71
2023/07/02 11:03:59;;;;;;;3.70;2.50;;;;;;;24.57;54.92;98760.18;218894;1253;139144;-69
2023/07/02 11:09:16;;;;;;;2.20;2.00;;;;;;;24.74;54.89;98765.54;218543;1254;140325;-67
2023/07/02 11:14:34;;;;;;;1.40;1.40;;;;;;;24.95;54.47;98751.42;218211;1253;140363;-67
2023/07/02 11:19:37;;;;;;;1.90;1.70;;;;;;;24.82;54.24;98751.23;218471;1254;139538;-67
2023/07/02 11:24:41;;;;;;;1.50;1.50;;;;;;;24.67;53.61;98765.67;218380;1254;139755;-69
2023/07/02 11:29:45;;;;;;;1.80;1.60;;;;;;;24.87;53.41;98759.47;219553;1254;139335;-69
2023/07/02 11:34:54;;;;;;;4.20;1.80;;;;;;;25.17;52.58;98756.92;218176;1256;139969;-70
2023/07/02 11:39:57;;;;;;;2.40;1.90;;;;;;;25.08;51.39;98765.61;218021;1254;140171;-69
2023/07/02 11:45:03;;;;;;;2.00;1.90;;;;;;;24.74;51.02;98773.39;218720;1254;139418;-69
2023/07/02 11:50:07;;;;;;;2.90;2.00;;;;;;;24.25;50.82;98779.29;218062;1254;139440;-70
2023/07/02 11:55:29;;;;;;;2.10;1.90;;;;;;;23.74;50.66;98783.44;218543;1254;139980;-70
2023/07/02 12:00:32;;;;;;;1.60;1.60;;;;;;;23.33;50.91;98792.29;218187;1254;139192;-69
2023/07/02 12:05:36;;;;;;;2.00;1.90;;;;;;;22.94;51.28;98802.09;219707;1254;139090;-69
2023/07/02 12:10:40;;;;;;;2.10;1.70;;;;;;;22.64;51.62;98799.13;218805;1253;139858;-71
2023/07/02 12:15:45;;;;;;;2.00;1.90;;;;;;;22.43;51.76;98803.67;219106;1253;139869;-71
2023/07/02 12:20:49;;;;;;;2.30;2.00;;;;;;;22.29;52.20;98801.73;218750;1253;139636;-70
2023/07/02 12:25:53;;;;;;;1.80;1.70;;;;;;;22.42;52.72;98801.95;218015;1254;139816;-70
2023/07/02 12:30:56;;;;;;;2.10;1.90;;;;;;;22.64;52.93;98793.61;218628;1257;139445;-70
2023/07/02 12:36:01;;;;;;;1.70;1.60;;;;;;;22.82;52.79;98797.73;220110;1253;138540;-73
2023/07/02 12:41:05;;;;;;;2.00;1.90;;;;;;;22.84;52.49;98804.65;218524;1253;139113;-67
2023/07/02 12:46:10;;;;;;;2.20;2.10;;;;;;;22.84;52.42;98811.78;220842;1254;139037;-67
2023/07/02 12:51:14;;;;;;;3.90;2.50;;;;;;;22.66;51.90;98812.63;220505;1253;139384;-65
2023/07/02 12:56:20;;;;;;;;;;;;;;;22.61;52.21;98815.02;217870;1254;138871;-66
2023/07/02 13:01:25;;;;;;;2.10;2.00;;;;;;;22.87;52.55;98816.73;219997;1253;125719;-67
2023/07/02 13:06:34;;;;;;;1.90;1.80;;;;;;;23.48;52.56;98817.30;218680;1253;138628;-68
2023/07/02 13:11:39;;;;;;;3.70;2.40;;;;;;;23.75;51.90;98819.48;219044;1257;140214;-72
2023/07/02 13:16:44;;;;;;;5.40;2.00;;;;;;;23.66;51.37;98816.24;218602;1253;139790;-67
2023/07/02 13:21:49;;;;;;;2.60;2.40;;;;;;;23.58;51.17;98821.75;218619;1254;139908;-66
2023/07/02 13:26:54;;;;;;;2.20;2.10;;;;;;;23.54;50.79;98820.68;218886;1253;138967;-67
2023/07/02 13:31:59;;;;;;;;;;;;;;;23.72;51.05;98820.39;218161;1253;139003;-66
2023/07/02 13:37:05;;;;;;;2.10;2.00;;;;;;;23.67;50.80;98821.08;219406;1253;127373;-68
2023/07/02 13:42:10;;;;;;;1.90;1.80;;;;;;;23.48;50.50;98829.11;218633;1253;140141;-73
2023/07/02 13:47:16;;;;;;;2.40;2.20;;;;;;;23.31;50.69;98828.64;218724;1254;139967;-64
2023/07/02 13:52:21;;;;;;;4.20;2.20;;;;;;;23.31;51.09;98825.16;218017;1257;139139;-66
2023/07/02 13:57:25;;;;;;;2.30;2.20;;;;;;;23.57;51.34;98822.65;218335;1253;139795;-66
2023/07/02 14:02:31;;;;;;;2.60;2.40;;;;;;;23.68;51.03;98829.90;218816;1253;139263;-69
2023/07/02 14:07:36;;;;;;;2.50;2.30;;;;;;;23.59;50.56;98826.05;218004;1254;139582;-69
2023/07/02 14:12:42;;;;;;;4.90;3.10;;;;;;;23.64;50.83;98830.25;218529;1254;140013;-68
2023/07/02 14:17:49;;;;;;;2.40;2.20;;;;;;;23.68;50.20;98833.39;218264;1254;138861;-68
2023/07/02 14:22:55;;;;;;;2.10;1.60;;;;;;;23.69;50.19;98830.78;219513;1253;139084;-69
2023/07/02 14:28:00;;;;;;;3.70;2.60;;;;;;;23.61;49.76;98833.66;218494;1254;140081;-66
2023/07/02 14:33:06;;;;;;;3.00;2.00;;;;;;;23.66;49.44;98834.81;218794;1254;140820;-67
2023/07/02 14:38:10;;;;;;;1.80;1.70;;;;;;;23.75;49.48;98832.84;219625;1254;139855;-66
2023/07/02 14:43:18;;;;;;;1.70;1.70;;;;;;;24.21;49.08;98828.02;218921;1253;220199;-69
2023/07/02 14:48:22;;;;;;;1.80;1.70;;;;;;;24.67;48.71;98824.45;220517;1253;139789;-69
2023/07/02 14:53:30;;;;;;;2.70;2.30;;;;;;;24.93;47.99;98825.51;219951;1253;140096;-67
2023/07/02 14:58:36;;;;;;;2.80;2.30;;;;;;;24.90;47.32;98817.96;218737;1254;139215;-68
2023/07/02 15:03:40;;;;;;;6.90;2.20;;;;;;;24.60;47.09;98821.55;218141;1253;138912;-68
2023/07/02 15:08:45;;;;;;;2.60;2.10;;;;;;;24.51;46.98;98826.52;218971;1253;139889;-69
2023/07/02 15:13:49;;;;;;;2.00;1.90;;;;;;;24.60;46.38;98823.48;218349;1257;139280;-69
2023/07/02 15:18:54;;;;;;;2.70;2.20;;;;;;;24.37;46.05;98825.06;218881;1254;139303;-74
2023/07/02 15:23:59;;;;;;;2.10;2.00;;;;;;;24.18;45.59;98827.61;218428;1254;139090;-65
2023/07/02 15:29:03;;;;;;;2.30;2.20;;;;;;;24.29;45.37;98828.17;218182;1257;140421;-66
2023/07/02 15:34:07;;;;;;;2.60;2.10;;;;;;;24.38;44.73;98829.52;218798;1257;140714;-73
2023/07/02 15:39:11;;;;;;;3.60;2.20;;;;;;;24.07;44.43;98828.09;218724;1253;139287;-67
2023/07/02 15:44:15;;;;;;;2.00;1.70;;;;;;;23.88;44.45;98835.22;218843;1253;139668;-72
2023/07/02 15:49:21;;;;;;;2.40;2.20;;;;;;;23.72;44.47;98837.73;218223;1253;140650;-72
2023/07/02 15:54:26;;;;;;;2.40;2.00;;;;;;;23.65;44.49;98841.23;218289;1254;139825;-69
2023/07/02 15:59:30;;;;;;;2.10;2.00;;;;;;;23.93;44.76;98846.19;218284;1254;139110;-68
2023/07/02 16:04:34;;;;;;;2.30;2.20;;;;;;;23.89;44.57;98849.58;217994;1254;140134;-67
2023/07/02 16:09:39;;;;;;;3.70;3.20;;;;;;;23.68;44.48;98850.92;219706;1253;139170;-68
2023/07/02 16:14:44;;;;;;;3.90;2.30;;;;;;;23.78;44.84;98849.11;219443;1254;140312;-67
2023/07/02 16:19:49;;;;;;;2.40;2.20;;;;;;;24.00;44.90;98860.94;220259;1257;140027;-67
2023/07/02 16:24:55;;;;;;;4.60;2.70;;;;;;;23.98;44.83;98870.67;218410;1253;139137;-67
2023/07/02 16:29:59;;;;;;;2.20;2.00;;;;;;;23.78;44.53;98884.78;220284;1253;139124;-67
2023/07/02 16:35:03;;;;;;;4.50;2.50;;;;;;;23.54;43.99;98891.73;220746;1253;139364;-68
2023/07/02 16:40:07;;;;;;;2.90;2.40;;;;;;;23.39;43.76;98893.86;220050;1253;139123;-68
2023/07/02 16:45:12;;;;;;;5.50;2.30;;;;;;;23.28;43.89;98894.52;219465;1253;139431;-68
2023/07/02 16:50:16;;;;;;;5.70;1.90;;;;;;;23.23;44.15;98897.38;219172;1253;140094;-67
2023/07/02 16:55:19;;;;;;;3.10;2.80;;;;;;;23.16;44.18;98896.77;218716;1254;139656;-67
2023/07/02 17:00:24;;;;;;;2.30;2.10;;;;;;;23.02;44.10;98899.02;218712;1253;139428;-67
2023/07/02 17:05:31;;;;;;;5.80;2.50;;;;;;;22.91;44.22;98899.52;218723;1257;139252;-65
2023/07/02 17:10:36;;;;;;;2.60;2.40;;;;;;;22.79;44.39;98912.13;219503;1253;139114;-67
2023/07/02 17:15:41;;;;;;;3.10;2.40;;;;;;;22.59;44.31;98920.33;218506;1254;139093;-67
2023/07/02 17:20:53;;;;;;;2.30;2.10;;;;;;;22.45;44.26;98923.80;219378;1254;139553;-67
2023/07/02 17:26:04;;;;;;;5.00;3.10;;;;;;;22.34;44.35;98930.92;218370;1256;139260;-66
2023/07/02 17:31:13;;;;;;;2.70;2.50;;;;;;;22.20;44.15;98934.72;218092;1254;139187;-67
2023/07/02 17:36:19;;;;;;;2.80;2.60;;;;;;;22.02;44.15;98953.95;218568;1254;139015;-66
2023/07/02 17:41:27;;;;;;;5.30;3.00;;;;;;;21.84;44.53;98964.89;219016;1253;140348;-67
2023/07/02 17:46:35;;;;;;;3.30;3.00;;;;;;;21.68;44.58;98968.16;218087;1254;139948;-66
2023/07/02 17:51:47;;;;;;;9.70;3.10;;;;;;;21.55;44.75;98980.73;218551;1254;140734;-67
2023/07/02 17:56:55;;;;;;;5.80;2.60;;;;;;;21.38;45.16;98983.63;218740;1253;139553;-66
2023/07/02 18:02:04;;;;;;;5.40;2.80;;;;;;;21.26;45.53;98981.23;219387;1254;139828;-67
2023/07/02 18:07:16;;;;;;;5.50;3.70;;;;;;;21.12;45.72;98979.84;218092;1253;139767;-66
2023/07/02 18:12:25;;;;;;;3.90;3.00;;;;;;;20.95;45.88;98977.65;218222;1257;140715;-66
2023/07/02 18:17:33;;;;;;;4.70;2.90;;;;;;;20.83;46.11;98986.65;218823;1254;139361;-67
2023/07/02 18:22:38;;;;;;;6.60;3.00;;;;;;;20.70;46.45;98983.16;218225;1254;140012;-69
2023/07/02 18:27:42;;;;;;;3.60;3.00;;;;;;;20.56;46.79;98984.59;220024;1253;138815;-67
2023/07/02 18:32:46;;;;;;;6.90;3.30;;;;;;;20.41;46.98;98991.92;220865;1253;139299;-69
2023/07/02 18:37:52;;;;;;;4.80;3.20;;;;;;;20.28;47.25;98998.61;220192;1253;139322;-68
2023/07/02 18:42:59;;;;;;;4.80;3.90;;;;;;;20.17;47.56;99001.91;218800;1253;139108;-67
2023/07/02 18:48:06;;;;;;;13.20;3.20;;;;;;;20.07;47.75;99011.57;220204;1253;139232;-68
2023/07/02 18:53:17;;;;;;;6.00;3.30;;;;;;;19.95;48.02;99022.41;219422;1254;139871;-67
2023/07/02 18:58:22;;;;;;;4.60;3.10;;;;;;;19.80;48.42;99025.48;219123;1253;138889;-67
2023/07/02 19:03:29;;;;;;;3.80;3.50;;;;;;;19.63;48.76;99034.85;219543;1253;139317;-67
2023/07/02 19:08:36;;;;;;;8.30;3.60;;;;;;;19.51;49.37;99040.27;218238;1257;139889;-67
2023/07/02 19:13:42;;;;;;;5.50;3.90;;;;;;;19.35;49.61;99050.00;218767;1254;139379;-67
2023/07/02 19:18:51;;;;;;;5.70;3.40;;;;;;;19.22;49.95;99056.81;218119;1254;139760;-69
2023/07/02 19:23:58;;;;;;;6.60;3.60;;;;;;;19.03;50.57;99065.14;218930;1253;139960;-69
2023/07/02 19:29:04;;;;;;;7.70;3.80;;;;;;;18.84;51.06;99074.14;218331;1253;139074;-69
2023/07/02 19:34:09;;;;;;;3.80;3.50;;;;;;;18.66;51.57;99073.27;218858;1254;139319;-69
2023/07/02 19:39:16;;;;;;;;;;;;;;;18.43;52.23;99077.80;218487;1254;150937;-68
2023/07/02 19:44:20;;;;;;;5.50;3.60;;;;;;;18.14;52.76;99084.67;218484;1257;125672;-69
2023/07/02 19:49:23;;;;;;;3.80;3.00;;;;;;;17.82;53.39;99094.12;219442;1254;140204;-69
2023/07/02 19:54:27;;;;;;;4.40;3.80;;;;;;;17.55;53.90;99097.16;218923;1253;140040;-68
2023/07/02 19:59:32;;;;;;;10.70;4.30;;;;;;;17.25;54.28;99097.54;218916;1254;140188;-69
2023/07/02 20:04:38;;;;;;;5.00;3.40;;;;;;;17.08;55.11;99104.33;218544;1254;139092;-69
2023/07/02 20:09:46;;;;;;;4.50;3.80;;;;;;;16.97;55.58;99106.42;218177;1257;138722;-67
2023/07/02 20:14:59;;;;;;;6.20;4.30;;;;;;;16.78;56.09;99110.79;220190;1254;139110;-68
2023/07/02 20:20:05;;;;;;;6.00;3.70;;;;;;;16.62;56.43;99113.30;218815;1254;139320;-68
2023/07/02 20:25:10;;;;;;;11.10;4.30;;;;;;;16.56;56.97;99114.88;218863;1254;139042;-68
2023/07/02 20:30:38;;;;;;;6.90;4.30;;;;;;;16.52;57.28;99124.65;219948;1253;140112;-67
2023/07/02 20:35:43;;;;;;;7.10;3.90;;;;;;;16.48;57.52;99124.61;221015;1254;139584;-68
2023/07/02 20:41:03;;;;;;;7.10;4.80;;;;;;;16.46;57.67;99129.81;219797;1254;139190;-68
2023/07/02 20:46:07;;;;;;;11.40;4.60;;;;;;;16.48;57.90;99130.11;220863;1253;139129;-68
2023/07/02 20:51:11;;;;;;;5.60;4.60;;;;;;;16.49;58.14;99133.16;218830;1254;138788;-67
2023/07/02 20:56:15;;;;;;;7.60;4.50;;;;;;;16.48;58.37;99132.73;219945;1255;139086;-67
2023/07/02 21:01:19;;;;;;;9.50;3.80;;;;;;;16.45;58.48;99138.21;218038;1254;139264;-66
2023/07/02 21:06:24;;;;;;;5.10;3.80;;;;;;;16.38;58.61;99144.16;219596;1254;139483;-67
2023/07/02 21:11:28;;;;;;;4.60;4.10;;;;;;;16.28;59.02;99145.77;219459;1257;140536;-67
2023/07/02 21:16:37;;;;;;;7.20;5.50;;;;;;;16.12;59.36;99154.45;217921;1259;139201;-67
2023/07/02 21:21:43;;;;;;;5.20;4.70;;;;;;;15.98;59.67;99158.24;218150;1253;139821;-66
2023/07/02 21:26:47;;;;;;;5.90;5.20;;;;;;;15.84;60.00;99166.02;218530;1254;140515;-67
2023/07/02 21:31:50;;;;;;;7.20;4.70;;;;;;;15.65;60.27;99171.81;218798;1259;140705;-67
2023/07/02 21:36:55;;;;;;;8.10;5.40;;;;;;;15.51;60.75;99177.02;218132;1256;139602;-67
2023/07/02 21:42:00;;;;;;;11.20;4.90;;;;;;;15.42;61.23;99178.26;218421;1257;139903;-69
2023/07/02 21:47:04;;;;;;;7.00;5.70;;;;;;;15.37;61.57;99183.33;218408;1254;141000;-69
2023/07/02 21:52:08;;;;;;;9.20;5.80;;;;;;;15.33;61.86;99185.55;219869;1257;139687;-67
2023/07/02 21:57:11;;;;;;;7.40;5.10;;;;;;;15.30;62.10;99187.31;219623;1254;140078;-67
2023/07/02 22:02:16;;;;;;;10.60;5.10;;;;;;;15.27;62.33;99185.24;218606;1254;139810;-67
2023/07/02 22:07:19;;;;;;;8.50;5.70;;;;;;;15.24;62.46;99192.68;218539;1254;140679;-67
2023/07/02 22:12:23;;;;;;;6.30;5.70;;;;;;;15.15;62.55;99192.61;218192;1254;139811;-69
2023/07/02 22:17:26;;;;;;;10.20;5.30;;;;;;;15.06;62.93;99194.86;219875;1253;140093;-67
2023/07/02 22:22:30;;;;;;;13.10;5.70;;;;;;;14.98;63.29;99195.55;218437;1254;140749;-69
2023/07/02 22:27:34;;;;;;;11.00;5.90;;;;;;;14.86;63.26;99197.48;220676;1256;140076;-67
2023/07/02 22:32:38;;;;;;;6.10;5.00;;;;;;;14.73;63.60;99200.38;220276;1253;141739;-67
2023/07/02 22:37:42;;;;;;;6.20;5.20;;;;;;;14.61;63.75;99207.20;220869;1254;140152;-67
2023/07/02 22:42:45;;;;;;;12.70;4.90;;;;;;;14.47;63.98;99208.69;220568;1253;265069;-67
2023/07/02 22:47:49;;;;;;;11.60;6.20;;;;;;;14.38;64.33;99215.77;219907;1257;140503;-67
2023/07/02 22:52:53;;;;;;;11.40;5.50;;;;;;;14.30;64.49;99215.42;219415;1254;140079;-67
2023/07/02 22:57:57;;;;;;;6.20;5.00;;;;;;;14.22;64.57;99211.94;217980;1259;139632;-68
2023/07/02 23:03:01;;;;;;;10.40;6.10;;;;;;;14.12;64.98;99212.70;218785;1254;139755;-69
2023/07/02 23:08:05;;;;;;;8.30;5.00;;;;;;;13.97;65.05;99217.81;219120;1254;139749;-66
2023/07/02 23:13:08;;;;;;;6.10;5.10;;;;;;;13.75;65.31;99218.79;218356;1254;139769;-69
2023/07/02 23:18:12;;;;;;;12.10;5.90;;;;;;;13.56;65.70;99221.17;218366;1257;139814;-69